sensor_id;sensor_type;location;lat;lon;timestamp;pressure;altitude;pressure_sealevel;temperature;humidity
36798;BME280;22748;8.426;99.512;2023-04-01T02:02:38;100773.34;;;28.97;68.92
36798;BME280;22748;8.426;99.512;2023-04-01T02:05:35;100782.25;;;29.24;68.42
36798;BME280;22748;8.426;99.512;2023-04-01T02:08:09;100782.22;;;29.57;68.04
36798;BME280;22748;8.426;99.512;2023-04-01T02:10:55;100785.88;;;29.89;67.34
36798;BME280;22748;8.426;99.512;2023-04-01T02:13:31;100780.44;;;30.16;66.92
36798;BME280;22748;8.426;99.512;2023-04-01T02:16:08;100779.91;;;30.39;65.80
36798;BME280;22748;8.426;99.512;2023-04-01T02:18:53;100786.59;;;30.62;65.18
36798;BME280;22748;8.426;99.512;2023-04-01T02:21:27;100790.16;;;30.62;63.77
36798;BME280;22748;8.426;99.512;2023-04-01T02:24:01;100789.88;;;30.70;63.17
36798;BME280;22748;8.426;99.512;2023-04-01T02:26:36;100791.25;;;30.86;63.64
36798;BME280;22748;8.426;99.512;2023-04-01T02:29:09;100788.47;;;31.00;63.19
36798;BME280;22748;8.426;99.512;2023-04-01T02:31:42;100789.41;;;31.12;62.56
36798;BME280;22748;8.426;99.512;2023-04-01T02:34:14;100792.25;;;31.17;61.16
36798;BME280;22748;8.426;99.512;2023-04-01T02:36:46;100790.09;;;31.26;60.99
36798;BME280;22748;8.426;99.512;2023-04-01T02:39:17;100791.69;;;31.33;60.88
36798;BME280;22748;8.426;99.512;2023-04-01T02:41:48;100785.00;;;31.43;60.60
36798;BME280;22748;8.426;99.512;2023-04-01T02:44:19;100794.69;;;31.50;60.63
36798;BME280;22748;8.426;99.512;2023-04-01T02:46:49;100795.75;;;31.49;59.60
36798;BME280;22748;8.426;99.512;2023-04-01T02:49:22;100794.06;;;31.48;56.56
36798;BME280;22748;8.426;99.512;2023-04-01T02:51:52;100791.09;;;31.56;56.74
36798;BME280;22748;8.426;99.512;2023-04-01T02:54:23;100785.63;;;31.63;56.60
36798;BME280;22748;8.426;99.512;2023-04-01T02:56:54;100784.72;;;31.69;55.82
36798;BME280;22748;8.426;99.512;2023-04-01T02:59:24;100783.44;;;31.72;55.30
36798;BME280;22748;8.426;99.512;2023-04-01T03:02:09;100781.81;;;31.71;54.63
36798;BME280;22748;8.426;99.512;2023-04-01T03:04:42;100785.13;;;31.73;55.27
36798;BME280;22748;8.426;99.512;2023-04-01T03:07:14;100777.38;;;31.76;54.93
36798;BME280;22748;8.426;99.512;2023-04-01T03:09:45;100780.25;;;31.82;54.93
36798;BME280;22748;8.426;99.512;2023-04-01T03:12:16;100773.31;;;31.86;54.90
36798;BME280;22748;8.426;99.512;2023-04-01T03:14:47;100773.25;;;31.92;55.38
36798;BME280;22748;8.426;99.512;2023-04-01T03:17:17;100776.94;;;31.98;55.05
36798;BME280;22748;8.426;99.512;2023-04-01T03:19:49;100775.72;;;31.94;52.44
36798;BME280;22748;8.426;99.512;2023-04-01T03:22:20;100773.81;;;32.01;52.44
36798;BME280;22748;8.426;99.512;2023-04-01T03:24:52;100776.03;;;32.04;51.82
36798;BME280;22748;8.426;99.512;2023-04-01T03:27:22;100772.28;;;32.05;52.83
36798;BME280;22748;8.426;99.512;2023-04-01T03:29:54;100768.91;;;32.10;49.86
36798;BME280;22748;8.426;99.512;2023-04-01T03:32:24;100774.31;;;32.10;50.12
36798;BME280;22748;8.426;99.512;2023-04-01T03:34:57;100761.31;;;32.18;50.12
36798;BME280;22748;8.426;99.512;2023-04-01T03:37:39;100755.44;;;32.22;49.83
36798;BME280;22748;8.426;99.512;2023-04-01T03:40:19;100750.31;;;32.32;50.00
36798;BME280;22748;8.426;99.512;2023-04-01T03:42:55;100745.63;;;32.39;50.67
36798;BME280;22748;8.426;99.512;2023-04-01T03:45:29;100741.88;;;32.40;49.51
36798;BME280;22748;8.426;99.512;2023-04-01T03:48:00;100739.75;;;32.42;49.34
36798;BME280;22748;8.426;99.512;2023-04-01T03:50:35;100736.94;;;32.37;47.20
36798;BME280;22748;8.426;99.512;2023-04-01T03:53:06;100733.44;;;32.48;48.58
36798;BME280;22748;8.426;99.512;2023-04-01T03:55:36;100728.78;;;32.55;47.05
36798;BME280;22748;8.426;99.512;2023-04-01T03:58:07;100727.03;;;32.61;47.67
36798;BME280;22748;8.426;99.512;2023-04-01T04:00:37;100716.22;;;32.61;47.30
36798;BME280;22748;8.426;99.512;2023-04-01T04:03:08;100718.22;;;32.66;46.99
36798;BME280;22748;8.426;99.512;2023-04-01T04:05:46;100713.28;;;32.63;46.15
36798;BME280;22748;8.426;99.512;2023-04-01T04:08:17;100702.00;;;32.66;45.93
36798;BME280;22748;8.426;99.512;2023-04-01T04:10:56;100700.25;;;32.71;46.14
36798;BME280;22748;8.426;99.512;2023-04-01T04:13:31;100702.84;;;32.78;45.82
36798;BME280;22748;8.426;99.512;2023-04-01T04:16:05;100695.91;;;32.82;46.26
36798;BME280;22748;8.426;99.512;2023-04-01T04:18:40;100704.38;;;32.86;45.32
36798;BME280;22748;8.426;99.512;2023-04-01T04:21:15;100689.31;;;32.90;44.95
36798;BME280;22748;8.426;99.512;2023-04-01T04:23:45;100684.88;;;32.95;44.66
36798;BME280;22748;8.426;99.512;2023-04-01T04:26:19;100683.91;;;33.02;44.92
36798;BME280;22748;8.426;99.512;2023-04-01T04:28:54;100678.03;;;33.05;45.22
36798;BME280;22748;8.426;99.512;2023-04-01T04:31:25;100680.16;;;33.03;45.38
36798;BME280;22748;8.426;99.512;2023-04-01T04:33:58;100672.84;;;32.91;45.42
36798;BME280;22748;8.426;99.512;2023-04-01T04:36:31;100670.16;;;32.91;45.62
36798;BME280;22748;8.426;99.512;2023-04-01T04:39:02;100670.25;;;32.96;45.31
36798;BME280;22748;8.426;99.512;2023-04-01T04:41:41;100669.72;;;33.06;45.55
36798;BME280;22748;8.426;99.512;2023-04-01T04:44:13;100665.34;;;33.17;44.92
36798;BME280;22748;8.426;99.512;2023-04-01T04:46:53;100655.13;;;33.19;45.22
36798;BME280;22748;8.426;99.512;2023-04-01T04:49:22;100655.69;;;33.21;45.50
36798;BME280;22748;8.426;99.512;2023-04-01T04:51:54;100655.78;;;33.26;45.04
36798;BME280;22748;8.426;99.512;2023-04-01T04:54:24;100647.19;;;33.29;45.60
36798;BME280;22748;8.426;99.512;2023-04-01T04:56:55;100641.78;;;33.29;45.76
36798;BME280;22748;8.426;99.512;2023-04-01T04:59:26;100640.72;;;33.30;46.05
36798;BME280;22748;8.426;99.512;2023-04-01T05:01:56;100631.16;;;33.39;45.09
36798;BME280;22748;8.426;99.512;2023-04-01T05:04:28;100615.59;;;33.47;44.48
36798;BME280;22748;8.426;99.512;2023-04-01T05:06:59;100619.72;;;33.49;44.50
36798;BME280;22748;8.426;99.512;2023-04-01T05:09:33;100607.09;;;33.55;44.12
36798;BME280;22748;8.426;99.512;2023-04-01T05:12:03;100606.88;;;33.56;43.93
36798;BME280;22748;8.426;99.512;2023-04-01T05:14:41;100602.88;;;33.59;43.96
36798;BME280;22748;8.426;99.512;2023-04-01T05:17:11;100598.63;;;33.63;44.41
36798;BME280;22748;8.426;99.512;2023-04-01T05:19:42;100591.66;;;33.67;43.94
36798;BME280;22748;8.426;99.512;2023-04-01T05:22:14;100594.84;;;33.64;43.93
36798;BME280;22748;8.426;99.512;2023-04-01T05:24:45;100592.72;;;33.66;43.25
36798;BME280;22748;8.426;99.512;2023-04-01T05:27:19;100573.03;;;33.71;43.30
36798;BME280;22748;8.426;99.512;2023-04-01T05:29:53;100572.88;;;33.77;43.63
36798;BME280;22748;8.426;99.512;2023-04-01T05:32:25;100569.78;;;33.86;43.04
36798;BME280;22748;8.426;99.512;2023-04-01T05:34:56;100567.97;;;33.91;43.30
36798;BME280;22748;8.426;99.512;2023-04-01T05:37:29;100560.75;;;33.97;43.27
36798;BME280;22748;8.426;99.512;2023-04-01T05:39:59;100552.03;;;33.95;42.96
36798;BME280;22748;8.426;99.512;2023-04-01T05:42:30;100549.09;;;33.96;43.38
36798;BME280;22748;8.426;99.512;2023-04-01T05:45:10;100528.56;;;34.00;43.21
36798;BME280;22748;8.426;99.512;2023-04-01T05:47:53;100518.31;;;34.03;43.06
36798;BME280;22748;8.426;99.512;2023-04-01T05:50:24;100517.22;;;34.04;42.36
36798;BME280;22748;8.426;99.512;2023-04-01T05:52:56;100501.31;;;34.07;41.95
36798;BME280;22748;8.426;99.512;2023-04-01T05:55:28;100505.19;;;34.11;42.34
36798;BME280;22748;8.426;99.512;2023-04-01T05:57:58;100481.28;;;34.08;41.68
36798;BME280;22748;8.426;99.512;2023-04-01T06:00:32;100482.44;;;34.12;41.97
36798;BME280;22748;8.426;99.512;2023-04-01T06:03:09;100472.25;;;34.19;42.01
36798;BME280;22748;8.426;99.512;2023-04-01T06:05:41;100467.47;;;34.27;42.09
36798;BME280;22748;8.426;99.512;2023-04-01T06:08:15;100463.44;;;34.29;42.37
36798;BME280;22748;8.426;99.512;2023-04-01T06:10:55;100459.91;;;34.29;42.34
36798;BME280;22748;8.426;99.512;2023-04-01T06:13:51;100445.59;;;34.33;42.64
36798;BME280;22748;8.426;99.512;2023-04-01T06:16:34;100438.38;;;34.39;43.04
36798;BME280;22748;8.426;99.512;2023-04-01T06:19:30;100448.06;;;34.35;43.19
36798;BME280;22748;8.426;99.512;2023-04-01T06:25:23;100429.47;;;34.44;42.17
36798;BME280;22748;8.426;99.512;2023-04-01T06:28:34;100427.56;;;34.44;42.14
36798;BME280;22748;8.426;99.512;2023-04-01T06:31:19;100426.53;;;34.45;41.11
36798;BME280;22748;8.426;99.512;2023-04-01T06:34:13;100427.56;;;34.44;40.45
36798;BME280;22748;8.426;99.512;2023-04-01T06:37:03;100411.38;;;34.49;40.73
36798;BME280;22748;8.426;99.512;2023-04-01T06:42:53;100408.09;;;34.47;40.55
36798;BME280;22748;8.426;99.512;2023-04-01T06:45:34;100390.75;;;34.48;39.38
36798;BME280;22748;8.426;99.512;2023-04-01T06:48:18;100388.28;;;34.47;40.77
36798;BME280;22748;8.426;99.512;2023-04-01T06:51:01;100376.69;;;34.51;40.79
36798;BME280;22748;8.426;99.512;2023-04-01T06:53:38;100369.44;;;34.57;40.77
36798;BME280;22748;8.426;99.512;2023-04-01T06:56:26;100352.41;;;34.61;40.44
36798;BME280;22748;8.426;99.512;2023-04-01T06:59:02;100344.59;;;34.65;39.64
36798;BME280;22748;8.426;99.512;2023-04-01T07:01:38;100343.31;;;34.73;39.87
36798;BME280;22748;8.426;99.512;2023-04-01T07:04:15;100342.00;;;34.53;40.09
36798;BME280;22748;8.426;99.512;2023-04-01T07:06:51;100331.47;;;34.57;40.50
36798;BME280;22748;8.426;99.512;2023-04-01T07:09:31;100333.94;;;34.58;40.58
36798;BME280;22748;8.426;99.512;2023-04-01T07:12:10;100321.25;;;34.64;40.83
36798;BME280;22748;8.426;99.512;2023-04-01T07:14:50;100322.69;;;34.72;40.02
36798;BME280;22748;8.426;99.512;2023-04-01T07:17:27;100320.03;;;34.77;39.23
36798;BME280;22748;8.426;99.512;2023-04-01T07:20:02;100317.88;;;34.79;39.48
36798;BME280;22748;8.426;99.512;2023-04-01T07:22:38;100317.91;;;34.84;40.37
36798;BME280;22748;8.426;99.512;2023-04-01T07:25:14;100307.69;;;34.91;40.42
36798;BME280;22748;8.426;99.512;2023-04-01T07:27:46;100297.97;;;34.95;40.28
36798;BME280;22748;8.426;99.512;2023-04-01T07:30:21;100296.88;;;34.96;39.95
36798;BME280;22748;8.426;99.512;2023-04-01T07:32:55;100298.00;;;35.00;39.56
36798;BME280;22748;8.426;99.512;2023-04-01T07:35:37;100290.41;;;35.02;39.66
36798;BME280;22748;8.426;99.512;2023-04-01T07:38:16;100281.19;;;35.03;40.25
36798;BME280;22748;8.426;99.512;2023-04-01T07:40:58;100286.34;;;35.00;40.13
36798;BME280;22748;8.426;99.512;2023-04-01T07:43:51;100282.03;;;35.04;40.04
36798;BME280;22748;8.426;99.512;2023-04-01T07:49:44;100269.63;;;35.13;39.49
36798;BME280;22748;8.426;99.512;2023-04-01T07:52:31;100263.88;;;35.10;39.26
36798;BME280;22748;8.426;99.512;2023-04-01T07:55:09;100258.97;;;35.07;39.08
36798;BME280;22748;8.426;99.512;2023-04-01T07:57:49;100247.81;;;35.03;39.34
36798;BME280;22748;8.426;99.512;2023-04-01T08:00:25;100259.19;;;35.00;39.41
36798;BME280;22748;8.426;99.512;2023-04-01T08:06:00;100244.31;;;35.08;39.32
36798;BME280;22748;8.426;99.512;2023-04-01T08:08:43;100236.97;;;35.08;39.30
36798;BME280;22748;8.426;99.512;2023-04-01T08:11:25;100236.47;;;35.11;37.55
36798;BME280;22748;8.426;99.512;2023-04-01T08:14:07;100239.25;;;35.16;37.30
36798;BME280;22748;8.426;99.512;2023-04-01T08:16:55;100233.81;;;35.16;37.89
36798;BME280;22748;8.426;99.512;2023-04-01T08:19:42;100222.41;;;35.14;37.48
36798;BME280;22748;8.426;99.512;2023-04-01T08:22:21;100220.25;;;35.16;37.34
36798;BME280;22748;8.426;99.512;2023-04-01T08:24:56;100215.34;;;35.13;37.75
36798;BME280;22748;8.426;99.512;2023-04-01T08:27:35;100214.03;;;35.21;37.26
36798;BME280;22748;8.426;99.512;2023-04-01T08:30:18;100209.69;;;35.20;37.25
36798;BME280;22748;8.426;99.512;2023-04-01T08:32:48;100215.00;;;35.10;36.40
36798;BME280;22748;8.426;99.512;2023-04-01T08:35:27;100203.97;;;35.16;37.37
36798;BME280;22748;8.426;99.512;2023-04-01T08:38:01;100205.38;;;35.24;37.69
36798;BME280;22748;8.426;99.512;2023-04-01T08:40:56;100204.25;;;35.20;36.66
36798;BME280;22748;8.426;99.512;2023-04-01T08:46:57;100203.22;;;35.26;37.89
36798;BME280;22748;8.426;99.512;2023-04-01T08:49:57;100198.06;;;35.30;37.60
36798;BME280;22748;8.426;99.512;2023-04-01T08:52:42;100194.28;;;35.31;37.13
36798;BME280;22748;8.426;99.512;2023-04-01T09:01:44;100192.91;;;35.28;36.79
36798;BME280;22748;8.426;99.512;2023-04-01T09:04:27;100183.16;;;35.32;36.90
36798;BME280;22748;8.426;99.512;2023-04-01T09:07:15;100179.09;;;35.35;37.79
36798;BME280;22748;8.426;99.512;2023-04-01T09:10:22;100181.53;;;35.36;38.11
36798;BME280;22748;8.426;99.512;2023-04-01T09:13:34;100188.84;;;35.31;38.06
36798;BME280;22748;8.426;99.512;2023-04-01T09:16:26;100182.59;;;35.30;38.65
36798;BME280;22748;8.426;99.512;2023-04-01T09:19:24;100180.44;;;35.32;39.04
36798;BME280;22748;8.426;99.512;2023-04-01T09:25:27;100170.41;;;35.33;39.57
36798;BME280;22748;8.426;99.512;2023-04-01T09:28:07;100174.47;;;35.35;39.79
36798;BME280;22748;8.426;99.512;2023-04-01T09:30:52;100174.47;;;35.35;40.06
36798;BME280;22748;8.426;99.512;2023-04-01T09:34:10;100173.38;;;35.36;40.02
36798;BME280;22748;8.426;99.512;2023-04-01T09:37:02;100167.69;;;35.38;40.18
36798;BME280;22748;8.426;99.512;2023-04-01T09:39:42;100169.63;;;35.42;40.38
36798;BME280;22748;8.426;99.512;2023-04-01T09:42:35;100179.91;;;35.40;40.55
36798;BME280;22748;8.426;99.512;2023-04-01T09:45:26;100176.41;;;35.40;40.71
36798;BME280;22748;8.426;99.512;2023-04-01T09:48:09;100173.44;;;35.41;40.92
36798;BME280;22748;8.426;99.512;2023-04-01T09:50:53;100175.03;;;35.42;41.31
36798;BME280;22748;8.426;99.512;2023-04-01T09:53:42;100177.75;;;35.42;41.57
36798;BME280;22748;8.426;99.512;2023-04-01T09:56:38;100181.84;;;35.45;41.31
36798;BME280;22748;8.426;99.512;2023-04-01T10:12:24;100195.97;;;35.47;42.22
36798;BME280;22748;8.426;99.512;2023-04-01T10:19:05;100196.25;;;35.46;42.42
36798;BME280;22748;8.426;99.512;2023-04-01T10:34:46;100209.25;;;35.38;43.31
36798;BME280;22748;8.426;99.512;2023-04-01T10:40:57;100212.78;;;35.39;43.57
36798;BME280;22748;8.426;99.512;2023-04-01T10:50:00;100216.06;;;35.41;43.23
36798;BME280;22748;8.426;99.512;2023-04-01T10:56:02;100216.06;;;35.41;43.18
36798;BME280;22748;8.426;99.512;2023-04-01T11:15:08;100244.81;;;35.37;43.88
36798;BME280;22748;8.426;99.512;2023-04-01T11:18:15;100244.25;;;35.35;44.09
36798;BME280;22748;8.426;99.512;2023-04-01T11:24:05;100251.53;;;35.29;43.92
36798;BME280;22748;8.426;99.512;2023-04-01T11:26:51;100257.50;;;35.26;43.49
36798;BME280;22748;8.426;99.512;2023-04-01T11:29:45;100260.47;;;35.25;43.52
36798;BME280;22748;8.426;99.512;2023-04-01T11:32:34;100262.63;;;35.22;43.57
36798;BME280;22748;8.426;99.512;2023-04-01T11:38:19;100278.38;;;35.26;43.51
36798;BME280;22748;8.426;99.512;2023-04-01T11:41:02;100293.06;;;35.25;43.52
36798;BME280;22748;8.426;99.512;2023-04-01T11:43:40;100291.16;;;35.25;43.69
36798;BME280;22748;8.426;99.512;2023-04-01T11:46:19;100292.25;;;35.24;43.69
36798;BME280;22748;8.426;99.512;2023-04-01T11:49:01;100306.88;;;35.23;43.55
36798;BME280;22748;8.426;99.512;2023-04-01T11:52:09;100304.44;;;35.21;43.33
36798;BME280;22748;8.426;99.512;2023-04-01T11:55:02;100309.03;;;35.21;43.53
36798;BME280;22748;8.426;99.512;2023-04-01T12:04:00;100322.56;;;35.16;44.62
36798;BME280;22748;8.426;99.512;2023-04-01T12:06:41;100322.22;;;35.12;44.91
36798;BME280;22748;8.426;99.512;2023-04-01T12:09:20;100323.31;;;35.11;45.15
36798;BME280;22748;8.426;99.512;2023-04-01T12:12:03;100321.94;;;35.09;44.95
36798;BME280;22748;8.426;99.512;2023-04-01T12:14:47;100324.59;;;35.03;45.26
36798;BME280;22748;8.426;99.512;2023-04-01T12:17:30;100330.03;;;35.03;45.09
36798;BME280;22748;8.426;99.512;2023-04-01T12:20:35;100337.63;;;35.01;45.39
36798;BME280;22748;8.426;99.512;2023-04-01T12:23:17;100346.28;;;34.98;45.29
36798;BME280;22748;8.426;99.512;2023-04-01T12:26:26;100351.16;;;34.96;45.50
36798;BME280;22748;8.426;99.512;2023-04-01T12:29:11;100361.44;;;34.94;45.66
36798;BME280;22748;8.426;99.512;2023-04-01T12:31:58;100365.25;;;34.93;45.83
36798;BME280;22748;8.426;99.512;2023-04-01T12:34:45;100378.28;;;34.96;45.54
36798;BME280;22748;8.426;99.512;2023-04-01T12:37:24;100373.97;;;35.00;45.78
36798;BME280;22748;8.426;99.512;2023-04-01T12:40:05;100388.59;;;34.99;45.68
36798;BME280;22748;8.426;99.512;2023-04-01T12:42:58;100386.16;;;34.98;45.68
36798;BME280;22748;8.426;99.512;2023-04-01T12:45:31;100403.25;;;34.98;45.68
36798;BME280;22748;8.426;99.512;2023-04-01T12:51:28;100399.94;;;34.91;46.25
36798;BME280;22748;8.426;99.512;2023-04-01T12:54:27;100408.09;;;34.91;46.15
36798;BME280;22748;8.426;99.512;2023-04-01T12:57:16;100413.25;;;34.93;46.51
36798;BME280;22748;8.426;99.512;2023-04-01T13:00:03;100418.09;;;34.91;46.67
36798;BME280;22748;8.426;99.512;2023-04-01T13:02:57;100437.38;;;34.89;46.79
36798;BME280;22748;8.426;99.512;2023-04-01T13:05:47;100449.28;;;34.88;46.98
36798;BME280;22748;8.426;99.512;2023-04-01T13:08:37;100459.56;;;34.86;47.24
36798;BME280;22748;8.426;99.512;2023-04-01T13:11:18;100476.69;;;34.87;47.19
36798;BME280;22748;8.426;99.512;2023-04-01T13:14:18;100474.22;;;34.85;47.35
36798;BME280;22748;8.426;99.512;2023-04-01T13:16:54;100487.53;;;34.87;47.40
36798;BME280;22748;8.426;99.512;2023-04-01T13:19:34;100490.50;;;34.85;47.26
36798;BME280;22748;8.426;99.512;2023-04-01T13:22:10;100492.63;;;34.83;47.21
36798;BME280;22748;8.426;99.512;2023-04-01T13:24:51;100502.13;;;34.80;47.29
36798;BME280;22748;8.426;99.512;2023-04-01T13:27:30;100517.00;;;34.78;47.31
36798;BME280;22748;8.426;99.512;2023-04-01T13:30:24;100526.19;;;34.77;47.32
36798;BME280;22748;8.426;99.512;2023-04-01T13:33:00;100530.81;;;34.76;47.33
36798;BME280;22748;8.426;99.512;2023-04-01T13:35:43;100547.34;;;34.75;47.31
36798;BME280;22748;8.426;99.512;2023-04-01T13:41:20;100553.28;;;34.72;47.31
36798;BME280;22748;8.426;99.512;2023-04-01T13:43:51;100566.84;;;34.72;47.30
36798;BME280;22748;8.426;99.512;2023-04-01T13:46:41;100562.56;;;34.76;47.20
36798;BME280;22748;8.426;99.512;2023-04-01T13:49:40;100567.72;;;34.77;47.32
36798;BME280;22748;8.426;99.512;2023-04-01T13:55:38;100582.94;;;34.78;46.98
36798;BME280;22748;8.426;99.512;2023-04-01T13:58:47;100587.53;;;34.78;47.07
36798;BME280;22748;8.426;99.512;2023-04-01T14:01:26;100595.69;;;34.78;46.59
36798;BME280;22748;8.426;99.512;2023-04-01T14:07:13;100590.97;;;34.73;46.65
36798;BME280;22748;8.426;99.512;2023-04-01T14:10:07;100598.81;;;34.70;46.41
36798;BME280;22748;8.426;99.512;2023-04-01T14:12:49;100610.72;;;34.69;46.49
36798;BME280;22748;8.426;99.512;2023-04-01T14:18:53;100606.38;;;34.68;46.66
36798;BME280;22748;8.426;99.512;2023-04-01T14:21:37;100609.09;;;34.68;46.43
36798;BME280;22748;8.426;99.512;2023-04-01T14:24:28;100608.28;;;34.67;46.41
36798;BME280;22748;8.426;99.512;2023-04-01T14:32:56;100618.28;;;34.67;46.61
36798;BME280;22748;8.426;99.512;2023-04-01T14:35:43;100613.94;;;34.66;46.41
36798;BME280;22748;8.426;99.512;2023-04-01T14:38:43;100615.00;;;34.65;46.31
36798;BME280;22748;8.426;99.512;2023-04-01T14:41:21;100615.25;;;34.63;46.11
36798;BME280;22748;8.426;99.512;2023-04-01T14:49:49;100626.50;;;34.55;46.04
36798;BME280;22748;8.426;99.512;2023-04-01T14:52:28;100629.72;;;34.52;46.17
36798;BME280;22748;8.426;99.512;2023-04-01T14:55:10;100632.91;;;34.49;45.76
36798;BME280;22748;8.426;99.512;2023-04-01T14:57:42;100625.00;;;34.47;45.78
36798;BME280;22748;8.426;99.512;2023-04-01T15:00:29;100630.69;;;34.46;45.70
36798;BME280;22748;8.426;99.512;2023-04-01T15:03:17;100629.31;;;34.43;45.63
36798;BME280;22748;8.426;99.512;2023-04-01T15:05:52;100637.91;;;34.40;45.25
36798;BME280;22748;8.426;99.512;2023-04-01T15:08:29;100634.91;;;34.36;45.39
36798;BME280;22748;8.426;99.512;2023-04-01T15:11:24;100633.75;;;34.32;45.28
36798;BME280;22748;8.426;99.512;2023-04-01T15:17:23;100652.38;;;34.29;45.18
36798;BME280;22748;8.426;99.512;2023-04-01T15:20:15;100655.09;;;34.29;45.25
36798;BME280;22748;8.426;99.512;2023-04-01T15:23:01;100664.31;;;34.28;45.18
36798;BME280;22748;8.426;99.512;2023-04-01T15:25:48;100678.91;;;34.27;45.26
36798;BME280;22748;8.426;99.512;2023-04-01T15:28:27;100677.28;;;34.26;45.35
36798;BME280;22748;8.426;99.512;2023-04-01T15:31:03;100677.28;;;34.26;45.13
36798;BME280;22748;8.426;99.512;2023-04-01T15:36:46;100690.84;;;34.26;45.34
36798;BME280;22748;8.426;99.512;2023-04-01T15:39:28;100694.00;;;34.22;45.44
36798;BME280;22748;8.426;99.512;2023-04-01T15:42:16;100701.34;;;34.22;45.37
36798;BME280;22748;8.426;99.512;2023-04-01T15:45:18;100696.97;;;34.21;45.41
36798;BME280;22748;8.426;99.512;2023-04-01T15:48:13;100703.22;;;34.21;45.49
36798;BME280;22748;8.426;99.512;2023-04-01T15:57:13;100707.50;;;34.17;45.60
36798;BME280;22748;8.426;99.512;2023-04-01T16:00:11;100702.53;;;34.14;45.76
36798;BME280;22748;8.426;99.512;2023-04-01T16:02:48;100718.78;;;34.14;45.76
36798;BME280;22748;8.426;99.512;2023-04-01T16:05:33;100726.34;;;34.12;45.90
36798;BME280;22748;8.426;99.512;2023-04-01T16:08:32;100721.16;;;34.11;46.09
36798;BME280;22748;8.426;99.512;2023-04-01T16:11:15;100725.75;;;34.10;46.02
36798;BME280;22748;8.426;99.512;2023-04-01T16:13:59;100717.88;;;34.09;46.17
36798;BME280;22748;8.426;99.512;2023-04-01T16:16:51;100719.19;;;34.06;46.17
36798;BME280;22748;8.426;99.512;2023-04-01T16:19:58;100717.50;;;34.05;46.30
36798;BME280;22748;8.426;99.512;2023-04-01T16:22:34;100720.22;;;34.05;46.31
36798;BME280;22748;8.426;99.512;2023-04-01T16:25:20;100726.72;;;34.04;46.44
36798;BME280;22748;8.426;99.512;2023-04-01T16:28:09;100722.34;;;34.03;46.46
36798;BME280;22748;8.426;99.512;2023-04-01T16:30:54;100731.56;;;34.02;46.54
36798;BME280;22748;8.426;99.512;2023-04-01T16:33:35;100728.28;;;34.00;46.67
36798;BME280;22748;8.426;99.512;2023-04-01T16:36:13;100732.03;;;33.99;46.75
36798;BME280;22748;8.426;99.512;2023-04-01T16:39:02;100734.16;;;33.97;46.75
36798;BME280;22748;8.426;99.512;2023-04-01T16:41:38;100727.09;;;33.96;46.99
36798;BME280;22748;8.426;99.512;2023-04-01T16:44:18;100731.72;;;33.95;46.98
36798;BME280;22748;8.426;99.512;2023-04-01T16:46:57;100725.44;;;33.95;47.02
36798;BME280;22748;8.426;99.512;2023-04-01T16:49:37;100711.34;;;33.93;47.12
36798;BME280;22748;8.426;99.512;2023-04-01T16:52:35;100718.88;;;33.91;47.31
36798;BME280;22748;8.426;99.512;2023-04-01T16:55:15;100710.75;;;33.91;47.42
36798;BME280;22748;8.426;99.512;2023-04-01T16:57:50;100709.31;;;33.88;47.62
36798;BME280;22748;8.426;99.512;2023-04-01T17:00:28;100700.63;;;33.86;47.68
36798;BME280;22748;8.426;99.512;2023-04-01T17:03:08;100702.78;;;33.84;47.85
36798;BME280;22748;8.426;99.512;2023-04-01T17:05:57;100707.34;;;33.84;47.82
36798;BME280;22748;8.426;99.512;2023-04-01T17:09:03;100714.88;;;33.81;47.98
36798;BME280;22748;8.426;99.512;2023-04-01T17:11:43;100718.69;;;33.80;47.95
36798;BME280;22748;8.426;99.512;2023-04-01T17:14:23;100711.59;;;33.79;48.00
36798;BME280;22748;8.426;99.512;2023-04-01T17:17:08;100711.59;;;33.79;48.13
36798;BME280;22748;8.426;99.512;2023-04-01T17:23:04;100707.84;;;33.80;48.25
36798;BME280;22748;8.426;99.512;2023-04-01T17:25:47;100699.13;;;33.78;48.17
36798;BME280;22748;8.426;99.512;2023-04-01T17:28:29;100702.06;;;33.77;48.28
36798;BME280;22748;8.426;99.512;2023-04-01T17:31:11;100699.63;;;33.75;48.40
36798;BME280;22748;8.426;99.512;2023-04-01T17:36:57;100673.00;;;33.72;48.43
36798;BME280;22748;8.426;99.512;2023-04-01T17:39:51;100666.78;;;33.72;48.74
36798;BME280;22748;8.426;99.512;2023-04-01T17:42:38;100659.69;;;33.71;48.62
36798;BME280;22748;8.426;99.512;2023-04-01T17:45:20;100665.38;;;33.69;48.83
36798;BME280;22748;8.426;99.512;2023-04-01T17:48:02;100654.78;;;33.68;48.77
36798;BME280;22748;8.426;99.512;2023-04-01T17:50:53;100642.31;;;33.67;48.59
36798;BME280;22748;8.426;99.512;2023-04-01T17:53:39;100641.47;;;33.66;48.73
36798;BME280;22748;8.426;99.512;2023-04-01T17:56:18;100638.75;;;33.66;48.82
36798;BME280;22748;8.426;99.512;2023-04-01T17:58:59;100627.34;;;33.64;48.84
36798;BME280;22748;8.426;99.512;2023-04-01T18:01:44;100626.75;;;33.62;48.81
36798;BME280;22748;8.426;99.512;2023-04-01T18:04:30;100629.47;;;33.62;48.88
36798;BME280;22748;8.426;99.512;2023-04-01T18:10:18;100611.59;;;33.61;48.98
36798;BME280;22748;8.426;99.512;2023-04-01T18:13:19;100604.50;;;33.60;49.08
36798;BME280;22748;8.426;99.512;2023-04-01T18:16:04;100599.94;;;33.60;49.15
36798;BME280;22748;8.426;99.512;2023-04-01T18:18:49;100596.84;;;33.57;49.31
36798;BME280;22748;8.426;99.512;2023-04-01T18:21:31;100597.34;;;33.54;49.57
36798;BME280;22748;8.426;99.512;2023-04-01T18:24:14;100604.31;;;33.50;49.71
36798;BME280;22748;8.426;99.512;2023-04-01T18:26:59;100598.88;;;33.50;49.78
36798;BME280;22748;8.426;99.512;2023-04-01T18:29:44;100601.00;;;33.48;49.81
36798;BME280;22748;8.426;99.512;2023-04-01T18:32:28;100593.34;;;33.45;49.95